Terminal Aerodrome Forecast
Issued by NWS Caribou, ME

Current Version | Previous Version | Text Only | Print | Product List | Glossary On
Versions: 1 2 3 4 5 6 7 8 9 10 11 12 13 14 15 16 17 18 19 20 21 22 23
327
FTUS41 KCAR 281134
TAFBGR
TAF
KBGR 281134Z 2812/0112 VRB03KT P6SM SCT060
     FM282100 16006KT P6SM BKN045
     FM010200 16010KT P6SM VCSH OVC020
     FM010400 16010KT 3SM -RA BR OVC010
     FM010600 16010KT 2SM -RA BR OVC005=

USA.gov is the U.S. government's official web portal to all federal, state and local government web resources and services.